sensor_id;sensor_type;location;lat;lon;timestamp;temperature;humidity
20398;DHT22;10358;49.590;11.030;2023-05-07T00:02:21;14.30;99.90
20398;DHT22;10358;49.590;11.030;2023-05-07T00:04:46;14.20;99.90
20398;DHT22;10358;49.590;11.030;2023-05-07T00:07:12;14.20;99.90
20398;DHT22;10358;49.590;11.030;2023-05-07T00:09:38;14.20;99.90
20398;DHT22;10358;49.590;11.030;2023-05-07T00:12:03;14.20;99.90
20398;DHT22;10358;49.590;11.030;2023-05-07T00:14:29;14.20;99.90
20398;DHT22;10358;49.590;11.030;2023-05-07T00:16:55;14.20;99.90
20398;DHT22;10358;49.590;11.030;2023-05-07T00:19:20;14.20;99.90
20398;DHT22;10358;49.590;11.030;2023-05-07T00:21:46;14.20;99.90
20398;DHT22;10358;49.590;11.030;2023-05-07T00:24:12;14.20;99.90
20398;DHT22;10358;49.590;11.030;2023-05-07T00:26:37;14.10;99.90
20398;DHT22;10358;49.590;11.030;2023-05-07T00:29:03;14.10;99.90
20398;DHT22;10358;49.590;11.030;2023-05-07T00:31:28;14.00;99.90
20398;DHT22;10358;49.590;11.030;2023-05-07T00:33:54;13.90;99.90
20398;DHT22;10358;49.590;11.030;2023-05-07T00:36:19;13.90;99.90
20398;DHT22;10358;49.590;11.030;2023-05-07T00:38:45;13.90;99.90
20398;DHT22;10358;49.590;11.030;2023-05-07T00:41:10;13.80;99.90
20398;DHT22;10358;49.590;11.030;2023-05-07T00:43:36;13.80;99.90
20398;DHT22;10358;49.590;11.030;2023-05-07T00:46:02;13.90;99.90
20398;DHT22;10358;49.590;11.030;2023-05-07T00:48:27;13.90;99.90
20398;DHT22;10358;49.590;11.030;2023-05-07T00:50:53;13.90;99.90
20398;DHT22;10358;49.590;11.030;2023-05-07T00:53:19;13.90;99.90
20398;DHT22;10358;49.590;11.030;2023-05-07T00:55:45;14.00;99.90
20398;DHT22;10358;49.590;11.030;2023-05-07T00:58:10;13.90;99.90
20398;DHT22;10358;49.590;11.030;2023-05-07T01:00:36;13.90;99.90
20398;DHT22;10358;49.590;11.030;2023-05-07T01:03:02;13.90;99.90
20398;DHT22;10358;49.590;11.030;2023-05-07T01:05:28;13.80;99.90
20398;DHT22;10358;49.590;11.030;2023-05-07T01:07:55;13.90;99.90
20398;DHT22;10358;49.590;11.030;2023-05-07T01:10:22;13.80;99.90
20398;DHT22;10358;49.590;11.030;2023-05-07T01:12:49;13.80;99.90
20398;DHT22;10358;49.590;11.030;2023-05-07T01:15:15;13.80;99.90
20398;DHT22;10358;49.590;11.030;2023-05-07T01:17:42;13.80;99.90
20398;DHT22;10358;49.590;11.030;2023-05-07T01:20:09;13.80;99.90
20398;DHT22;10358;49.590;11.030;2023-05-07T01:22:37;13.80;99.90
20398;DHT22;10358;49.590;11.030;2023-05-07T01:25:04;13.80;99.90
20398;DHT22;10358;49.590;11.030;2023-05-07T01:27:30;13.80;99.90
20398;DHT22;10358;49.590;11.030;2023-05-07T01:29:56;13.80;99.90
20398;DHT22;10358;49.590;11.030;2023-05-07T01:35:02;13.80;99.90
20398;DHT22;10358;49.590;11.030;2023-05-07T01:37:30;13.80;99.90
20398;DHT22;10358;49.590;11.030;2023-05-07T01:39:56;13.90;99.90
20398;DHT22;10358;49.590;11.030;2023-05-07T01:42:22;13.90;99.90
20398;DHT22;10358;49.590;11.030;2023-05-07T01:44:48;13.90;99.90
20398;DHT22;10358;49.590;11.030;2023-05-07T01:47:17;13.90;99.90
20398;DHT22;10358;49.590;11.030;2023-05-07T01:49:45;13.90;99.90
20398;DHT22;10358;49.590;11.030;2023-05-07T01:52:11;13.90;99.90
20398;DHT22;10358;49.590;11.030;2023-05-07T01:54:37;13.90;99.90
20398;DHT22;10358;49.590;11.030;2023-05-07T01:57:02;13.90;99.90
20398;DHT22;10358;49.590;11.030;2023-05-07T01:59:28;14.00;99.90
20398;DHT22;10358;49.590;11.030;2023-05-07T02:01:53;14.00;99.90
20398;DHT22;10358;49.590;11.030;2023-05-07T02:04:19;14.00;99.90
20398;DHT22;10358;49.590;11.030;2023-05-07T02:06:44;14.00;99.90
20398;DHT22;10358;49.590;11.030;2023-05-07T02:09:11;14.00;99.90
20398;DHT22;10358;49.590;11.030;2023-05-07T02:11:36;13.90;99.90
20398;DHT22;10358;49.590;11.030;2023-05-07T02:17:24;13.80;99.90
20398;DHT22;10358;49.590;11.030;2023-05-07T02:19:50;13.80;99.90
20398;DHT22;10358;49.590;11.030;2023-05-07T02:22:18;13.80;99.90
20398;DHT22;10358;49.590;11.030;2023-05-07T02:24:43;13.80;99.90
20398;DHT22;10358;49.590;11.030;2023-05-07T02:27:09;13.80;99.90
20398;DHT22;10358;49.590;11.030;2023-05-07T02:29:37;13.80;99.90
20398;DHT22;10358;49.590;11.030;2023-05-07T02:32:03;13.80;99.90
20398;DHT22;10358;49.590;11.030;2023-05-07T02:34:29;13.80;99.90
20398;DHT22;10358;49.590;11.030;2023-05-07T02:36:54;13.80;99.90
20398;DHT22;10358;49.590;11.030;2023-05-07T02:39:21;13.80;99.90
20398;DHT22;10358;49.590;11.030;2023-05-07T02:41:46;13.80;99.90
20398;DHT22;10358;49.590;11.030;2023-05-07T02:44:12;13.80;99.90
20398;DHT22;10358;49.590;11.030;2023-05-07T02:46:37;13.70;99.90
20398;DHT22;10358;49.590;11.030;2023-05-07T02:49:03;13.70;99.90
20398;DHT22;10358;49.590;11.030;2023-05-07T02:51:30;13.70;99.90
20398;DHT22;10358;49.590;11.030;2023-05-07T02:53:56;13.70;99.90
20398;DHT22;10358;49.590;11.030;2023-05-07T02:56:22;13.70;99.90
20398;DHT22;10358;49.590;11.030;2023-05-07T02:58:47;13.60;99.90
20398;DHT22;10358;49.590;11.030;2023-05-07T03:01:13;13.60;99.90
20398;DHT22;10358;49.590;11.030;2023-05-07T03:03:41;13.60;99.90
20398;DHT22;10358;49.590;11.030;2023-05-07T03:06:07;13.60;99.90
20398;DHT22;10358;49.590;11.030;2023-05-07T03:08:32;13.60;99.90
20398;DHT22;10358;49.590;11.030;2023-05-07T03:10:58;13.60;99.90
20398;DHT22;10358;49.590;11.030;2023-05-07T03:13:24;13.60;99.90
20398;DHT22;10358;49.590;11.030;2023-05-07T03:15:49;13.50;99.90
20398;DHT22;10358;49.590;11.030;2023-05-07T03:18:15;13.50;99.90
20398;DHT22;10358;49.590;11.030;2023-05-07T03:20:40;13.50;99.90
20398;DHT22;10358;49.590;11.030;2023-05-07T03:23:08;13.40;99.90
20398;DHT22;10358;49.590;11.030;2023-05-07T03:25:34;13.40;99.90
20398;DHT22;10358;49.590;11.030;2023-05-07T03:27:59;13.30;99.90
20398;DHT22;10358;49.590;11.030;2023-05-07T03:30:25;13.30;99.90
20398;DHT22;10358;49.590;11.030;2023-05-07T03:32:50;13.20;99.90
20398;DHT22;10358;49.590;11.030;2023-05-07T03:35:16;13.10;99.90
20398;DHT22;10358;49.590;11.030;2023-05-07T03:37:42;13.10;99.90
20398;DHT22;10358;49.590;11.030;2023-05-07T03:40:08;13.00;99.90
20398;DHT22;10358;49.590;11.030;2023-05-07T03:42:35;12.90;99.90
20398;DHT22;10358;49.590;11.030;2023-05-07T03:45:01;12.80;99.90
20398;DHT22;10358;49.590;11.030;2023-05-07T03:47:26;12.80;99.90
20398;DHT22;10358;49.590;11.030;2023-05-07T03:49:52;12.70;99.90
20398;DHT22;10358;49.590;11.030;2023-05-07T03:52:19;12.80;99.90
20398;DHT22;10358;49.590;11.030;2023-05-07T03:54:49;12.70;99.90
20398;DHT22;10358;49.590;11.030;2023-05-07T03:57:14;12.70;99.90
20398;DHT22;10358;49.590;11.030;2023-05-07T03:59:40;12.70;99.90
20398;DHT22;10358;49.590;11.030;2023-05-07T04:02:06;12.60;99.90
20398;DHT22;10358;49.590;11.030;2023-05-07T04:04:31;12.60;99.90
20398;DHT22;10358;49.590;11.030;2023-05-07T04:06:58;12.60;99.90
20398;DHT22;10358;49.590;11.030;2023-05-07T04:09:24;12.60;99.90
20398;DHT22;10358;49.590;11.030;2023-05-07T04:11:50;12.60;99.90
20398;DHT22;10358;49.590;11.030;2023-05-07T04:14:16;12.50;99.90
20398;DHT22;10358;49.590;11.030;2023-05-07T04:16:41;12.60;99.90
20398;DHT22;10358;49.590;11.030;2023-05-07T04:19:07;12.60;99.90
20398;DHT22;10358;49.590;11.030;2023-05-07T04:21:32;12.60;99.90
20398;DHT22;10358;49.590;11.030;2023-05-07T04:24:02;12.60;99.90
20398;DHT22;10358;49.590;11.030;2023-05-07T04:26:28;12.60;99.90
20398;DHT22;10358;49.590;11.030;2023-05-07T04:28:54;12.60;99.90
20398;DHT22;10358;49.590;11.030;2023-05-07T04:31:20;12.70;99.90
20398;DHT22;10358;49.590;11.030;2023-05-07T04:33:46;12.80;99.90
20398;DHT22;10358;49.590;11.030;2023-05-07T04:36:11;12.90;99.90
20398;DHT22;10358;49.590;11.030;2023-05-07T04:38:39;13.00;99.90
20398;DHT22;10358;49.590;11.030;2023-05-07T04:41:06;13.00;99.90
20398;DHT22;10358;49.590;11.030;2023-05-07T04:43:32;13.10;99.90
20398;DHT22;10358;49.590;11.030;2023-05-07T04:45:57;13.20;99.90
20398;DHT22;10358;49.590;11.030;2023-05-07T04:48:23;13.30;99.90
20398;DHT22;10358;49.590;11.030;2023-05-07T04:50:49;13.40;99.90
20398;DHT22;10358;49.590;11.030;2023-05-07T04:53:16;13.50;99.90
20398;DHT22;10358;49.590;11.030;2023-05-07T04:55:44;13.60;99.90
20398;DHT22;10358;49.590;11.030;2023-05-07T04:58:11;13.70;99.90
20398;DHT22;10358;49.590;11.030;2023-05-07T05:00:37;13.90;99.90
20398;DHT22;10358;49.590;11.030;2023-05-07T05:03:04;14.00;99.90
20398;DHT22;10358;49.590;11.030;2023-05-07T05:05:30;14.10;99.90
20398;DHT22;10358;49.590;11.030;2023-05-07T05:07:55;14.20;99.90
20398;DHT22;10358;49.590;11.030;2023-05-07T05:10:24;14.30;99.90
20398;DHT22;10358;49.590;11.030;2023-05-07T05:15:18;14.50;99.90
20398;DHT22;10358;49.590;11.030;2023-05-07T05:17:43;14.60;99.90
20398;DHT22;10358;49.590;11.030;2023-05-07T05:20:09;14.70;99.90
20398;DHT22;10358;49.590;11.030;2023-05-07T05:22:37;14.70;99.90
20398;DHT22;10358;49.590;11.030;2023-05-07T05:25:02;14.70;99.90
20398;DHT22;10358;49.590;11.030;2023-05-07T05:27:29;14.70;99.90
20398;DHT22;10358;49.590;11.030;2023-05-07T05:29:54;14.70;99.90
20398;DHT22;10358;49.590;11.030;2023-05-07T05:32:20;14.80;99.90
20398;DHT22;10358;49.590;11.030;2023-05-07T05:34:46;14.80;99.90
20398;DHT22;10358;49.590;11.030;2023-05-07T05:37:11;14.80;99.90
20398;DHT22;10358;49.590;11.030;2023-05-07T05:39:37;14.90;99.90
20398;DHT22;10358;49.590;11.030;2023-05-07T05:42:02;15.00;99.90
20398;DHT22;10358;49.590;11.030;2023-05-07T05:44:31;15.10;99.90
20398;DHT22;10358;49.590;11.030;2023-05-07T05:46:56;15.20;99.90
20398;DHT22;10358;49.590;11.030;2023-05-07T05:49:24;15.30;99.90
20398;DHT22;10358;49.590;11.030;2023-05-07T05:51:50;15.30;99.90
20398;DHT22;10358;49.590;11.030;2023-05-07T05:54:15;15.30;99.90
20398;DHT22;10358;49.590;11.030;2023-05-07T05:56:41;15.30;99.90
20398;DHT22;10358;49.590;11.030;2023-05-07T05:59:07;15.40;99.90
20398;DHT22;10358;49.590;11.030;2023-05-07T06:01:33;15.40;99.90
20398;DHT22;10358;49.590;11.030;2023-05-07T06:03:58;15.50;99.90
20398;DHT22;10358;49.590;11.030;2023-05-07T06:06:24;15.50;99.90
20398;DHT22;10358;49.590;11.030;2023-05-07T06:08:49;15.60;99.90
20398;DHT22;10358;49.590;11.030;2023-05-07T06:11:18;15.60;99.90
20398;DHT22;10358;49.590;11.030;2023-05-07T06:13:48;15.70;99.90
20398;DHT22;10358;49.590;11.030;2023-05-07T06:16:14;15.80;99.90
20398;DHT22;10358;49.590;11.030;2023-05-07T06:18:40;15.90;99.90
20398;DHT22;10358;49.590;11.030;2023-05-07T06:21:06;16.00;99.90
20398;DHT22;10358;49.590;11.030;2023-05-07T06:23:31;16.00;99.90
20398;DHT22;10358;49.590;11.030;2023-05-07T06:25:57;16.10;99.90
20398;DHT22;10358;49.590;11.030;2023-05-07T06:28:22;16.10;99.90
20398;DHT22;10358;49.590;11.030;2023-05-07T06:30:48;16.10;99.90
20398;DHT22;10358;49.590;11.030;2023-05-07T06:33:15;16.10;99.90
20398;DHT22;10358;49.590;11.030;2023-05-07T06:35:41;16.20;99.90
20398;DHT22;10358;49.590;11.030;2023-05-07T06:38:06;16.20;99.90
20398;DHT22;10358;49.590;11.030;2023-05-07T06:40:32;16.30;99.90
20398;DHT22;10358;49.590;11.030;2023-05-07T06:42:58;16.30;99.90
20398;DHT22;10358;49.590;11.030;2023-05-07T06:45:23;16.30;99.90
20398;DHT22;10358;49.590;11.030;2023-05-07T06:47:50;16.40;99.90
20398;DHT22;10358;49.590;11.030;2023-05-07T06:50:16;16.50;99.90
20398;DHT22;10358;49.590;11.030;2023-05-07T06:52:42;16.40;99.90
20398;DHT22;10358;49.590;11.030;2023-05-07T06:55:15;16.50;99.90
20398;DHT22;10358;49.590;11.030;2023-05-07T06:57:43;16.60;99.90
20398;DHT22;10358;49.590;11.030;2023-05-07T07:00:11;16.70;99.90
20398;DHT22;10358;49.590;11.030;2023-05-07T07:02:37;16.70;99.90
20398;DHT22;10358;49.590;11.030;2023-05-07T07:05:02;16.80;99.90
20398;DHT22;10358;49.590;11.030;2023-05-07T07:07:28;17.00;99.90
20398;DHT22;10358;49.590;11.030;2023-05-07T07:09:54;17.00;99.90
20398;DHT22;10358;49.590;11.030;2023-05-07T07:12:20;17.20;99.90
20398;DHT22;10358;49.590;11.030;2023-05-07T07:14:46;17.30;99.90
20398;DHT22;10358;49.590;11.030;2023-05-07T07:17:11;17.50;99.90
20398;DHT22;10358;49.590;11.030;2023-05-07T07:19:37;17.50;99.90
20398;DHT22;10358;49.590;11.030;2023-05-07T07:22:08;17.70;99.90
20398;DHT22;10358;49.590;11.030;2023-05-07T07:24:33;17.70;99.90
20398;DHT22;10358;49.590;11.030;2023-05-07T07:27:01;17.80;99.90
20398;DHT22;10358;49.590;11.030;2023-05-07T07:29:27;17.90;99.90
20398;DHT22;10358;49.590;11.030;2023-05-07T07:31:52;18.10;99.90
20398;DHT22;10358;49.590;11.030;2023-05-07T07:34:18;18.10;99.90
20398;DHT22;10358;49.590;11.030;2023-05-07T07:36:46;18.20;99.90
20398;DHT22;10358;49.590;11.030;2023-05-07T07:39:14;18.20;99.90
20398;DHT22;10358;49.590;11.030;2023-05-07T07:41:39;18.30;99.90
20398;DHT22;10358;49.590;11.030;2023-05-07T07:44:05;18.40;99.90
20398;DHT22;10358;49.590;11.030;2023-05-07T07:46:32;18.40;99.90
20398;DHT22;10358;49.590;11.030;2023-05-07T07:48:58;18.40;99.90
20398;DHT22;10358;49.590;11.030;2023-05-07T07:51:27;18.50;99.90
20398;DHT22;10358;49.590;11.030;2023-05-07T07:53:56;18.60;99.90
20398;DHT22;10358;49.590;11.030;2023-05-07T07:56:23;18.60;99.90
20398;DHT22;10358;49.590;11.030;2023-05-07T07:58:49;18.70;99.90
20398;DHT22;10358;49.590;11.030;2023-05-07T08:01:14;18.60;99.90
20398;DHT22;10358;49.590;11.030;2023-05-07T08:03:40;18.60;99.90
20398;DHT22;10358;49.590;11.030;2023-05-07T08:06:05;18.70;99.90
20398;DHT22;10358;49.590;11.030;2023-05-07T08:08:31;18.60;99.90
20398;DHT22;10358;49.590;11.030;2023-05-07T08:10:57;18.60;99.90
20398;DHT22;10358;49.590;11.030;2023-05-07T08:13:25;18.70;99.90
20398;DHT22;10358;49.590;11.030;2023-05-07T08:15:51;18.80;99.90
20398;DHT22;10358;49.590;11.030;2023-05-07T08:18:16;18.80;99.90
20398;DHT22;10358;49.590;11.030;2023-05-07T08:20:42;18.90;99.90
20398;DHT22;10358;49.590;11.030;2023-05-07T08:23:07;19.00;99.90
20398;DHT22;10358;49.590;11.030;2023-05-07T08:25:34;19.20;99.90
20398;DHT22;10358;49.590;11.030;2023-05-07T08:28:00;19.30;99.90
20398;DHT22;10358;49.590;11.030;2023-05-07T08:30:28;19.40;99.90
20398;DHT22;10358;49.590;11.030;2023-05-07T08:32:57;19.40;99.90
20398;DHT22;10358;49.590;11.030;2023-05-07T08:35:22;19.40;99.90
20398;DHT22;10358;49.590;11.030;2023-05-07T08:37:48;19.30;99.90
20398;DHT22;10358;49.590;11.030;2023-05-07T08:40:13;19.40;99.90
20398;DHT22;10358;49.590;11.030;2023-05-07T08:42:40;19.40;99.90
20398;DHT22;10358;49.590;11.030;2023-05-07T08:45:10;19.50;99.90
20398;DHT22;10358;49.590;11.030;2023-05-07T08:47:42;19.60;99.90
20398;DHT22;10358;49.590;11.030;2023-05-07T08:50:15;19.60;99.90
20398;DHT22;10358;49.590;11.030;2023-05-07T08:52:41;19.60;99.90
20398;DHT22;10358;49.590;11.030;2023-05-07T08:55:09;19.60;99.90
20398;DHT22;10358;49.590;11.030;2023-05-07T08:57:35;19.70;99.90
20398;DHT22;10358;49.590;11.030;2023-05-07T09:00:02;19.80;99.90
20398;DHT22;10358;49.590;11.030;2023-05-07T09:02:28;20.00;99.90
20398;DHT22;10358;49.590;11.030;2023-05-07T09:04:54;20.10;99.90
20398;DHT22;10358;49.590;11.030;2023-05-07T09:07:23;20.10;99.90
20398;DHT22;10358;49.590;11.030;2023-05-07T09:09:49;20.10;99.90
20398;DHT22;10358;49.590;11.030;2023-05-07T09:12:14;20.10;99.90
20398;DHT22;10358;49.590;11.030;2023-05-07T09:14:40;20.20;99.90
20398;DHT22;10358;49.590;11.030;2023-05-07T09:17:08;20.30;99.90
20398;DHT22;10358;49.590;11.030;2023-05-07T09:19:34;20.40;99.90
20398;DHT22;10358;49.590;11.030;2023-05-07T09:22:00;20.50;99.90
20398;DHT22;10358;49.590;11.030;2023-05-07T09:24:26;20.60;99.90
20398;DHT22;10358;49.590;11.030;2023-05-07T09:26:53;20.60;99.90
20398;DHT22;10358;49.590;11.030;2023-05-07T09:29:20;20.70;99.90
20398;DHT22;10358;49.590;11.030;2023-05-07T09:31:46;20.80;99.90
20398;DHT22;10358;49.590;11.030;2023-05-07T09:34:11;21.00;99.90
20398;DHT22;10358;49.590;11.030;2023-05-07T09:36:37;21.00;99.90
20398;DHT22;10358;49.590;11.030;2023-05-07T09:39:03;21.10;99.90
20398;DHT22;10358;49.590;11.030;2023-05-07T09:41:30;21.10;99.90
20398;DHT22;10358;49.590;11.030;2023-05-07T09:43:58;21.30;99.90
20398;DHT22;10358;49.590;11.030;2023-05-07T09:46:31;21.20;99.90
20398;DHT22;10358;49.590;11.030;2023-05-07T09:48:58;21.00;99.90
20398;DHT22;10358;49.590;11.030;2023-05-07T09:51:29;21.10;99.90
20398;DHT22;10358;49.590;11.030;2023-05-07T09:53:58;21.00;99.90
20398;DHT22;10358;49.590;11.030;2023-05-07T09:56:29;21.10;99.90
20398;DHT22;10358;49.590;11.030;2023-05-07T09:59:00;21.30;99.90
20398;DHT22;10358;49.590;11.030;2023-05-07T10:01:27;21.50;99.90
20398;DHT22;10358;49.590;11.030;2023-05-07T10:03:56;21.60;99.90
20398;DHT22;10358;49.590;11.030;2023-05-07T10:06:27;21.60;99.90
20398;DHT22;10358;49.590;11.030;2023-05-07T10:09:05;21.70;99.90
20398;DHT22;10358;49.590;11.030;2023-05-07T10:11:47;21.80;99.90
20398;DHT22;10358;49.590;11.030;2023-05-07T10:14:17;21.90;99.90
20398;DHT22;10358;49.590;11.030;2023-05-07T10:16:43;21.90;99.90
20398;DHT22;10358;49.590;11.030;2023-05-07T10:19:10;22.00;99.90
20398;DHT22;10358;49.590;11.030;2023-05-07T10:21:40;22.10;99.90
20398;DHT22;10358;49.590;11.030;2023-05-07T10:24:16;22.20;99.90
20398;DHT22;10358;49.590;11.030;2023-05-07T10:26:48;22.40;99.90
20398;DHT22;10358;49.590;11.030;2023-05-07T10:29:45;22.60;99.90
20398;DHT22;10358;49.590;11.030;2023-05-07T10:32:33;22.70;99.90
20398;DHT22;10358;49.590;11.030;2023-05-07T10:35:03;22.80;99.40
20398;DHT22;10358;49.590;11.030;2023-05-07T10:37:30;22.90;99.00
20398;DHT22;10358;49.590;11.030;2023-05-07T10:39:56;22.90;98.90
20398;DHT22;10358;49.590;11.030;2023-05-07T10:42:23;22.80;98.00
20398;DHT22;10358;49.590;11.030;2023-05-07T10:44:49;22.70;97.40
20398;DHT22;10358;49.590;11.030;2023-05-07T10:47:16;22.70;97.60
20398;DHT22;10358;49.590;11.030;2023-05-07T10:52:20;22.90;97.30
20398;DHT22;10358;49.590;11.030;2023-05-07T10:54:46;23.10;96.90
20398;DHT22;10358;49.590;11.030;2023-05-07T10:57:36;23.20;95.80
20398;DHT22;10358;49.590;11.030;2023-05-07T11:05:29;23.00;94.50
20398;DHT22;10358;49.590;11.030;2023-05-07T11:08:05;23.00;94.50
20398;DHT22;10358;49.590;11.030;2023-05-07T11:10:54;23.00;94.20
20398;DHT22;10358;49.590;11.030;2023-05-07T11:13:48;23.10;94.00
20398;DHT22;10358;49.590;11.030;2023-05-07T11:16:24;23.30;93.70
20398;DHT22;10358;49.590;11.030;2023-05-07T11:18:54;23.30;93.10
20398;DHT22;10358;49.590;11.030;2023-05-07T11:21:46;23.40;93.10
20398;DHT22;10358;49.590;11.030;2023-05-07T11:24:11;23.50;93.00
20398;DHT22;10358;49.590;11.030;2023-05-07T11:26:46;23.70;92.60
20398;DHT22;10358;49.590;11.030;2023-05-07T11:29:18;23.80;92.60
20398;DHT22;10358;49.590;11.030;2023-05-07T11:31:51;23.80;92.10
20398;DHT22;10358;49.590;11.030;2023-05-07T11:34:24;23.80;91.10
20398;DHT22;10358;49.590;11.030;2023-05-07T11:36:53;23.90;90.50
20398;DHT22;10358;49.590;11.030;2023-05-07T11:39:27;23.90;89.70
20398;DHT22;10358;49.590;11.030;2023-05-07T11:41:53;23.90;88.90
20398;DHT22;10358;49.590;11.030;2023-05-07T11:44:19;23.90;88.20
20398;DHT22;10358;49.590;11.030;2023-05-07T11:46:45;24.00;87.60
20398;DHT22;10358;49.590;11.030;2023-05-07T11:49:11;24.10;86.50
20398;DHT22;10358;49.590;11.030;2023-05-07T11:51:37;24.20;84.20
20398;DHT22;10358;49.590;11.030;2023-05-07T11:54:04;24.20;83.50
20398;DHT22;10358;49.590;11.030;2023-05-07T11:56:38;24.10;82.40
20398;DHT22;10358;49.590;11.030;2023-05-07T11:59:05;24.10;82.00
20398;DHT22;10358;49.590;11.030;2023-05-07T12:01:31;24.10;81.70
20398;DHT22;10358;49.590;11.030;2023-05-07T12:07:21;24.20;81.10
20398;DHT22;10358;49.590;11.030;2023-05-07T12:09:48;24.20;81.30
20398;DHT22;10358;49.590;11.030;2023-05-07T12:12:14;24.20;81.00
20398;DHT22;10358;49.590;11.030;2023-05-07T12:14:44;24.20;81.50
20398;DHT22;10358;49.590;11.030;2023-05-07T12:17:11;24.20;82.00
20398;DHT22;10358;49.590;11.030;2023-05-07T12:19:39;24.30;81.90
20398;DHT22;10358;49.590;11.030;2023-05-07T12:22:07;24.30;81.20
20398;DHT22;10358;49.590;11.030;2023-05-07T12:24:48;24.30;80.40
20398;DHT22;10358;49.590;11.030;2023-05-07T12:27:15;24.40;81.00
20398;DHT22;10358;49.590;11.030;2023-05-07T12:29:45;24.40;78.90
20398;DHT22;10358;49.590;11.030;2023-05-07T12:32:15;24.20;78.50
20398;DHT22;10358;49.590;11.030;2023-05-07T12:34:41;24.10;78.40
20398;DHT22;10358;49.590;11.030;2023-05-07T12:37:07;24.20;78.80
20398;DHT22;10358;49.590;11.030;2023-05-07T12:39:33;24.30;78.70
20398;DHT22;10358;49.590;11.030;2023-05-07T12:41:59;24.40;77.90
20398;DHT22;10358;49.590;11.030;2023-05-07T12:44:28;24.60;77.70
20398;DHT22;10358;49.590;11.030;2023-05-07T12:46:54;24.80;76.20
20398;DHT22;10358;49.590;11.030;2023-05-07T12:49:20;25.00;74.80
20398;DHT22;10358;49.590;11.030;2023-05-07T12:54:38;25.50;71.80
20398;DHT22;10358;49.590;11.030;2023-05-07T12:57:09;25.50;70.80
20398;DHT22;10358;49.590;11.030;2023-05-07T12:59:40;25.30;70.00
20398;DHT22;10358;49.590;11.030;2023-05-07T13:02:06;25.00;69.40
20398;DHT22;10358;49.590;11.030;2023-05-07T13:04:32;24.70;69.40
20398;DHT22;10358;49.590;11.030;2023-05-07T13:06:58;24.50;69.30
20398;DHT22;10358;49.590;11.030;2023-05-07T13:09:24;24.40;69.40
20398;DHT22;10358;49.590;11.030;2023-05-07T13:11:49;24.20;69.90
20398;DHT22;10358;49.590;11.030;2023-05-07T13:14:15;24.10;70.40
20398;DHT22;10358;49.590;11.030;2023-05-07T13:16:41;24.10;70.80
20398;DHT22;10358;49.590;11.030;2023-05-07T13:19:06;24.40;70.70
20398;DHT22;10358;49.590;11.030;2023-05-07T13:21:32;24.60;70.30
20398;DHT22;10358;49.590;11.030;2023-05-07T13:23:58;25.00;70.30
20398;DHT22;10358;49.590;11.030;2023-05-07T13:26:24;25.40;69.80
20398;DHT22;10358;49.590;11.030;2023-05-07T13:28:50;25.70;68.90
20398;DHT22;10358;49.590;11.030;2023-05-07T13:31:17;25.90;67.60
20398;DHT22;10358;49.590;11.030;2023-05-07T13:33:42;26.00;66.40
20398;DHT22;10358;49.590;11.030;2023-05-07T13:36:08;26.20;65.70
20398;DHT22;10358;49.590;11.030;2023-05-07T13:38:33;26.40;65.30
20398;DHT22;10358;49.590;11.030;2023-05-07T13:40:59;26.50;63.90
20398;DHT22;10358;49.590;11.030;2023-05-07T13:43:25;26.50;62.80
20398;DHT22;10358;49.590;11.030;2023-05-07T13:45:50;26.60;62.60
20398;DHT22;10358;49.590;11.030;2023-05-07T13:48:16;26.70;62.00
20398;DHT22;10358;49.590;11.030;2023-05-07T13:50:41;26.80;62.20
20398;DHT22;10358;49.590;11.030;2023-05-07T13:53:07;27.20;61.50
20398;DHT22;10358;49.590;11.030;2023-05-07T13:55:33;27.40;60.50
20398;DHT22;10358;49.590;11.030;2023-05-07T13:58:00;27.60;59.70
20398;DHT22;10358;49.590;11.030;2023-05-07T14:00:27;27.80;59.60
20398;DHT22;10358;49.590;11.030;2023-05-07T14:02:56;28.10;59.30
20398;DHT22;10358;49.590;11.030;2023-05-07T14:05:22;28.20;58.40
20398;DHT22;10358;49.590;11.030;2023-05-07T14:07:53;28.00;57.70
20398;DHT22;10358;49.590;11.030;2023-05-07T14:10:19;27.60;56.70
20398;DHT22;10358;49.590;11.030;2023-05-07T14:12:45;27.30;57.10
20398;DHT22;10358;49.590;11.030;2023-05-07T14:15:11;27.00;56.80
20398;DHT22;10358;49.590;11.030;2023-05-07T14:17:37;26.70;56.90
20398;DHT22;10358;49.590;11.030;2023-05-07T14:20:03;26.60;56.90
20398;DHT22;10358;49.590;11.030;2023-05-07T14:22:29;26.40;56.80
20398;DHT22;10358;49.590;11.030;2023-05-07T14:24:54;26.20;56.80
20398;DHT22;10358;49.590;11.030;2023-05-07T14:27:20;26.00;56.80
20398;DHT22;10358;49.590;11.030;2023-05-07T14:29:46;25.90;57.00
20398;DHT22;10358;49.590;11.030;2023-05-07T14:32:18;25.90;57.00
20398;DHT22;10358;49.590;11.030;2023-05-07T14:34:45;25.90;56.70
20398;DHT22;10358;49.590;11.030;2023-05-07T14:37:11;26.40;56.20
20398;DHT22;10358;49.590;11.030;2023-05-07T14:39:37;26.80;55.30
20398;DHT22;10358;49.590;11.030;2023-05-07T14:42:02;26.80;54.80
20398;DHT22;10358;49.590;11.030;2023-05-07T14:44:28;26.70;54.60
20398;DHT22;10358;49.590;11.030;2023-05-07T14:46:55;26.50;54.40
20398;DHT22;10358;49.590;11.030;2023-05-07T14:49:20;26.40;54.30
20398;DHT22;10358;49.590;11.030;2023-05-07T14:51:47;26.40;54.00
20398;DHT22;10358;49.590;11.030;2023-05-07T14:54:13;26.40;54.40
20398;DHT22;10358;49.590;11.030;2023-05-07T14:56:39;26.20;53.30
20398;DHT22;10358;49.590;11.030;2023-05-07T14:59:05;26.10;54.30
20398;DHT22;10358;49.590;11.030;2023-05-07T15:01:31;25.90;53.90
20398;DHT22;10358;49.590;11.030;2023-05-07T15:03:57;25.80;54.50
20398;DHT22;10358;49.590;11.030;2023-05-07T15:06:22;25.60;54.80
20398;DHT22;10358;49.590;11.030;2023-05-07T15:08:48;25.60;55.10
20398;DHT22;10358;49.590;11.030;2023-05-07T15:11:14;25.40;55.20
20398;DHT22;10358;49.590;11.030;2023-05-07T15:13:41;25.40;55.50
20398;DHT22;10358;49.590;11.030;2023-05-07T15:16:07;25.30;55.40
20398;DHT22;10358;49.590;11.030;2023-05-07T15:18:32;25.20;55.30
20398;DHT22;10358;49.590;11.030;2023-05-07T15:20:58;25.10;55.80
20398;DHT22;10358;49.590;11.030;2023-05-07T15:23:23;25.10;55.20
20398;DHT22;10358;49.590;11.030;2023-05-07T15:25:49;24.90;55.30
20398;DHT22;10358;49.590;11.030;2023-05-07T15:28:14;24.90;55.50
20398;DHT22;10358;49.590;11.030;2023-05-07T15:30:41;24.90;55.70
20398;DHT22;10358;49.590;11.030;2023-05-07T15:33:07;24.80;56.00
20398;DHT22;10358;49.590;11.030;2023-05-07T15:35:33;24.60;56.20
20398;DHT22;10358;49.590;11.030;2023-05-07T15:37:58;24.50;56.60